sensor_id;sensor_type;location;lat;lon;timestamp;P1;durP1;ratioP1;P2;durP2;ratioP2
73015;SDS011;61893;50.074;14.440;2023-03-20T00:01:53;42.45;;;21.63;;
73015;SDS011;61893;50.074;14.440;2023-03-20T00:04:20;44.78;;;21.98;;
73015;SDS011;61893;50.074;14.440;2023-03-20T00:06:50;37.92;;;21.70;;
73015;SDS011;61893;50.074;14.440;2023-03-20T00:09:16;37.83;;;21.17;;
73015;SDS011;61893;50.074;14.440;2023-03-20T00:11:45;41.13;;;22.88;;
73015;SDS011;61893;50.074;14.440;2023-03-20T00:14:14;41.83;;;22.42;;
73015;SDS011;61893;50.074;14.440;2023-03-20T00:16:43;36.33;;;22.08;;
73015;SDS011;61893;50.074;14.440;2023-03-20T00:19:15;35.00;;;21.08;;
73015;SDS011;61893;50.074;14.440;2023-03-20T00:21:49;39.35;;;22.08;;
73015;SDS011;61893;50.074;14.440;2023-03-20T00:24:16;38.80;;;21.95;;
73015;SDS011;61893;50.074;14.440;2023-03-20T00:26:47;43.67;;;22.55;;
73015;SDS011;61893;50.074;14.440;2023-03-20T00:31:54;38.38;;;21.80;;
73015;SDS011;61893;50.074;14.440;2023-03-20T00:34:23;37.40;;;23.13;;
73015;SDS011;61893;50.074;14.440;2023-03-20T00:36:56;41.30;;;21.38;;
73015;SDS011;61893;50.074;14.440;2023-03-20T00:39:22;35.78;;;22.58;;
73015;SDS011;61893;50.074;14.440;2023-03-20T00:41:50;44.50;;;23.67;;
73015;SDS011;61893;50.074;14.440;2023-03-20T00:46:56;38.60;;;21.80;;
73015;SDS011;61893;50.074;14.440;2023-03-20T00:49:25;41.08;;;22.40;;
73015;SDS011;61893;50.074;14.440;2023-03-20T00:51:56;38.67;;;23.13;;
73015;SDS011;61893;50.074;14.440;2023-03-20T00:54:23;35.25;;;21.10;;
73015;SDS011;61893;50.074;14.440;2023-03-20T00:57:07;41.33;;;24.03;;
73015;SDS011;61893;50.074;14.440;2023-03-20T00:59:40;39.23;;;22.20;;
73015;SDS011;61893;50.074;14.440;2023-03-20T01:02:16;44.47;;;23.57;;
73015;SDS011;61893;50.074;14.440;2023-03-20T01:04:42;40.55;;;23.45;;
73015;SDS011;61893;50.074;14.440;2023-03-20T01:07:09;40.37;;;24.10;;
73015;SDS011;61893;50.074;14.440;2023-03-20T01:09:38;45.10;;;24.93;;
73015;SDS011;61893;50.074;14.440;2023-03-20T01:12:04;40.83;;;24.63;;
73015;SDS011;61893;50.074;14.440;2023-03-20T01:14:32;40.67;;;23.60;;
73015;SDS011;61893;50.074;14.440;2023-03-20T01:16:58;39.33;;;22.43;;
73015;SDS011;61893;50.074;14.440;2023-03-20T01:19:24;41.50;;;23.47;;
73015;SDS011;61893;50.074;14.440;2023-03-20T01:21:50;41.77;;;22.93;;
73015;SDS011;61893;50.074;14.440;2023-03-20T01:24:16;45.30;;;23.07;;
73015;SDS011;61893;50.074;14.440;2023-03-20T01:26:42;38.77;;;22.60;;
73015;SDS011;61893;50.074;14.440;2023-03-20T01:29:14;43.17;;;23.43;;
73015;SDS011;61893;50.074;14.440;2023-03-20T01:31:44;40.60;;;22.73;;
73015;SDS011;61893;50.074;14.440;2023-03-20T01:34:10;39.37;;;22.87;;
73015;SDS011;61893;50.074;14.440;2023-03-20T01:36:36;40.17;;;22.70;;
73015;SDS011;61893;50.074;14.440;2023-03-20T01:39:03;38.07;;;22.17;;
73015;SDS011;61893;50.074;14.440;2023-03-20T01:41:30;45.00;;;22.50;;
73015;SDS011;61893;50.074;14.440;2023-03-20T01:43:56;41.23;;;22.67;;
73015;SDS011;61893;50.074;14.440;2023-03-20T01:46:27;41.37;;;23.53;;
73015;SDS011;61893;50.074;14.440;2023-03-20T01:51:48;44.53;;;23.37;;
73015;SDS011;61893;50.074;14.440;2023-03-20T01:54:19;40.97;;;21.77;;
73015;SDS011;61893;50.074;14.440;2023-03-20T01:57:15;39.63;;;20.80;;
73015;SDS011;61893;50.074;14.440;2023-03-20T01:59:52;40.37;;;22.70;;
73015;SDS011;61893;50.074;14.440;2023-03-20T02:02:24;38.93;;;21.57;;
73015;SDS011;61893;50.074;14.440;2023-03-20T02:04:55;37.97;;;22.37;;
73015;SDS011;61893;50.074;14.440;2023-03-20T02:07:25;39.90;;;22.37;;
73015;SDS011;61893;50.074;14.440;2023-03-20T02:09:51;37.77;;;20.43;;
73015;SDS011;61893;50.074;14.440;2023-03-20T02:12:18;38.53;;;21.40;;
73015;SDS011;61893;50.074;14.440;2023-03-20T02:14:45;36.90;;;20.87;;
73015;SDS011;61893;50.074;14.440;2023-03-20T02:17:12;40.27;;;22.43;;
73015;SDS011;61893;50.074;14.440;2023-03-20T02:43:36;38.43;;;22.03;;
73015;SDS011;61893;50.074;14.440;2023-03-20T02:48:45;35.17;;;21.37;;
73015;SDS011;61893;50.074;14.440;2023-03-20T02:51:35;41.47;;;21.60;;
73015;SDS011;61893;50.074;14.440;2023-03-20T02:54:10;40.10;;;22.67;;
73015;SDS011;61893;50.074;14.440;2023-03-20T02:56:51;43.87;;;22.50;;
73015;SDS011;61893;50.074;14.440;2023-03-20T03:02:13;34.43;;;20.13;;
73015;SDS011;61893;50.074;14.440;2023-03-20T03:04:53;40.37;;;21.17;;
73015;SDS011;61893;50.074;14.440;2023-03-20T03:07:25;36.77;;;19.77;;
73015;SDS011;61893;50.074;14.440;2023-03-20T03:09:55;38.00;;;21.63;;
73015;SDS011;61893;50.074;14.440;2023-03-20T03:12:28;39.13;;;21.17;;
73015;SDS011;61893;50.074;14.440;2023-03-20T03:14:59;38.70;;;22.10;;
73015;SDS011;61893;50.074;14.440;2023-03-20T03:17:29;40.27;;;21.67;;
73015;SDS011;61893;50.074;14.440;2023-03-20T03:20:01;35.97;;;20.77;;
73015;SDS011;61893;50.074;14.440;2023-03-20T03:22:32;39.30;;;21.70;;
73015;SDS011;61893;50.074;14.440;2023-03-20T03:24:59;35.50;;;21.20;;
73015;SDS011;61893;50.074;14.440;2023-03-20T03:29:59;34.30;;;20.00;;
73015;SDS011;61893;50.074;14.440;2023-03-20T03:32:35;37.57;;;20.37;;
73015;SDS011;61893;50.074;14.440;2023-03-20T03:35:09;32.47;;;19.37;;
73015;SDS011;61893;50.074;14.440;2023-03-20T03:37:47;32.93;;;20.37;;
73015;SDS011;61893;50.074;14.440;2023-03-20T03:40:27;39.47;;;20.87;;
73015;SDS011;61893;50.074;14.440;2023-03-20T03:43:22;33.63;;;18.17;;
73015;SDS011;61893;50.074;14.440;2023-03-20T03:45:53;34.67;;;18.93;;
73015;SDS011;61893;50.074;14.440;2023-03-20T03:48:31;33.57;;;19.40;;
73015;SDS011;61893;50.074;14.440;2023-03-20T03:51:03;32.80;;;19.07;;
73015;SDS011;61893;50.074;14.440;2023-03-20T03:53:34;32.87;;;19.70;;
73015;SDS011;61893;50.074;14.440;2023-03-20T03:56:05;32.37;;;19.00;;
73015;SDS011;61893;50.074;14.440;2023-03-20T03:58:36;37.87;;;18.37;;
73015;SDS011;61893;50.074;14.440;2023-03-20T04:01:07;33.90;;;18.80;;
73015;SDS011;61893;50.074;14.440;2023-03-20T04:03:45;31.60;;;17.53;;
73015;SDS011;61893;50.074;14.440;2023-03-20T04:06:29;32.50;;;17.93;;
73015;SDS011;61893;50.074;14.440;2023-03-20T04:08:57;31.97;;;18.90;;
73015;SDS011;61893;50.074;14.440;2023-03-20T04:11:23;32.80;;;19.87;;
73015;SDS011;61893;50.074;14.440;2023-03-20T04:13:51;33.97;;;18.47;;
73015;SDS011;61893;50.074;14.440;2023-03-20T04:16:18;32.93;;;18.07;;
73015;SDS011;61893;50.074;14.440;2023-03-20T04:18:46;31.90;;;19.17;;
73015;SDS011;61893;50.074;14.440;2023-03-20T04:21:12;31.47;;;17.40;;
73015;SDS011;61893;50.074;14.440;2023-03-20T04:23:52;38.23;;;19.73;;
73015;SDS011;61893;50.074;14.440;2023-03-20T04:26:18;30.03;;;17.77;;
73015;SDS011;61893;50.074;14.440;2023-03-20T04:28:45;30.70;;;18.20;;
73015;SDS011;61893;50.074;14.440;2023-03-20T04:31:11;33.20;;;18.40;;
73015;SDS011;61893;50.074;14.440;2023-03-20T04:33:38;29.23;;;18.03;;
73015;SDS011;61893;50.074;14.440;2023-03-20T04:36:05;31.77;;;18.40;;
73015;SDS011;61893;50.074;14.440;2023-03-20T04:38:32;28.03;;;17.90;;
73015;SDS011;61893;50.074;14.440;2023-03-20T04:40:58;31.77;;;18.53;;
73015;SDS011;61893;50.074;14.440;2023-03-20T04:43:24;30.37;;;18.17;;
73015;SDS011;61893;50.074;14.440;2023-03-20T04:45:50;29.40;;;17.43;;
73015;SDS011;61893;50.074;14.440;2023-03-20T04:48:17;31.20;;;17.00;;
73015;SDS011;61893;50.074;14.440;2023-03-20T04:50:43;29.93;;;17.47;;
73015;SDS011;61893;50.074;14.440;2023-03-20T04:53:27;32.08;;;18.08;;
73015;SDS011;61893;50.074;14.440;2023-03-20T04:55:53;33.20;;;17.67;;
73015;SDS011;61893;50.074;14.440;2023-03-20T04:58:19;30.37;;;17.60;;
73015;SDS011;61893;50.074;14.440;2023-03-20T05:00:45;29.97;;;17.03;;
73015;SDS011;61893;50.074;14.440;2023-03-20T05:03:11;28.83;;;16.50;;
73015;SDS011;61893;50.074;14.440;2023-03-20T05:05:37;28.40;;;16.20;;
73015;SDS011;61893;50.074;14.440;2023-03-20T05:08:03;27.17;;;16.43;;
73015;SDS011;61893;50.074;14.440;2023-03-20T05:10:45;30.77;;;17.10;;
73015;SDS011;61893;50.074;14.440;2023-03-20T05:13:11;31.73;;;16.83;;
73015;SDS011;61893;50.074;14.440;2023-03-20T05:15:37;26.23;;;15.90;;
73015;SDS011;61893;50.074;14.440;2023-03-20T05:18:03;32.40;;;15.83;;
73015;SDS011;61893;50.074;14.440;2023-03-20T05:20:29;26.87;;;15.73;;
73015;SDS011;61893;50.074;14.440;2023-03-20T05:22:57;28.33;;;15.67;;
73015;SDS011;61893;50.074;14.440;2023-03-20T05:25:22;25.97;;;16.20;;
73015;SDS011;61893;50.074;14.440;2023-03-20T05:27:48;27.50;;;15.50;;
73015;SDS011;61893;50.074;14.440;2023-03-20T05:30:14;25.70;;;14.43;;
73015;SDS011;61893;50.074;14.440;2023-03-20T05:32:41;25.40;;;14.13;;
73015;SDS011;61893;50.074;14.440;2023-03-20T05:35:08;25.07;;;14.20;;
73015;SDS011;61893;50.074;14.440;2023-03-20T05:37:34;24.47;;;14.33;;
73015;SDS011;61893;50.074;14.440;2023-03-20T05:40:00;27.40;;;14.57;;
73015;SDS011;61893;50.074;14.440;2023-03-20T05:42:26;27.70;;;14.23;;
73015;SDS011;61893;50.074;14.440;2023-03-20T05:44:52;24.50;;;14.37;;
73015;SDS011;61893;50.074;14.440;2023-03-20T05:47:18;26.07;;;14.30;;
73015;SDS011;61893;50.074;14.440;2023-03-20T05:49:44;28.83;;;14.13;;
73015;SDS011;61893;50.074;14.440;2023-03-20T05:52:14;24.87;;;14.43;;
73015;SDS011;61893;50.074;14.440;2023-03-20T05:54:40;24.50;;;14.33;;
73015;SDS011;61893;50.074;14.440;2023-03-20T05:57:10;25.67;;;15.53;;
73015;SDS011;61893;50.074;14.440;2023-03-20T05:59:46;24.53;;;14.57;;
73015;SDS011;61893;50.074;14.440;2023-03-20T06:02:12;23.33;;;14.43;;
73015;SDS011;61893;50.074;14.440;2023-03-20T06:04:38;24.30;;;13.80;;
73015;SDS011;61893;50.074;14.440;2023-03-20T06:07:04;22.67;;;13.70;;
73015;SDS011;61893;50.074;14.440;2023-03-20T06:09:30;23.00;;;14.30;;
73015;SDS011;61893;50.074;14.440;2023-03-20T06:11:57;22.57;;;14.10;;
73015;SDS011;61893;50.074;14.440;2023-03-20T06:14:25;25.03;;;15.30;;
73015;SDS011;61893;50.074;14.440;2023-03-20T06:16:51;21.33;;;13.67;;
73015;SDS011;61893;50.074;14.440;2023-03-20T06:19:18;27.40;;;15.00;;
73015;SDS011;61893;50.074;14.440;2023-03-20T06:21:46;27.43;;;14.47;;
73015;SDS011;61893;50.074;14.440;2023-03-20T06:24:14;22.77;;;12.80;;
73015;SDS011;61893;50.074;14.440;2023-03-20T06:26:41;23.50;;;13.20;;
73015;SDS011;61893;50.074;14.440;2023-03-20T06:29:08;25.50;;;13.20;;
73015;SDS011;61893;50.074;14.440;2023-03-20T06:31:34;23.57;;;12.93;;
73015;SDS011;61893;50.074;14.440;2023-03-20T06:34:03;22.63;;;13.80;;
73015;SDS011;61893;50.074;14.440;2023-03-20T06:36:29;26.73;;;14.10;;
73015;SDS011;61893;50.074;14.440;2023-03-20T06:38:56;25.70;;;13.43;;
73015;SDS011;61893;50.074;14.440;2023-03-20T06:41:22;21.67;;;13.00;;
73015;SDS011;61893;50.074;14.440;2023-03-20T06:43:50;26.07;;;12.87;;
73015;SDS011;61893;50.074;14.440;2023-03-20T06:46:18;21.40;;;13.37;;
73015;SDS011;61893;50.074;14.440;2023-03-20T06:48:44;22.57;;;13.10;;
73015;SDS011;61893;50.074;14.440;2023-03-20T06:51:17;21.00;;;12.80;;
73015;SDS011;61893;50.074;14.440;2023-03-20T06:53:45;20.07;;;12.60;;
73015;SDS011;61893;50.074;14.440;2023-03-20T06:56:17;24.17;;;12.63;;
73015;SDS011;61893;50.074;14.440;2023-03-20T06:58:47;21.13;;;12.40;;
73015;SDS011;61893;50.074;14.440;2023-03-20T07:01:17;21.57;;;12.77;;
73015;SDS011;61893;50.074;14.440;2023-03-20T07:03:45;25.90;;;13.13;;
73015;SDS011;61893;50.074;14.440;2023-03-20T07:06:24;27.88;;;13.43;;
73015;SDS011;61893;50.074;14.440;2023-03-20T07:09:29;27.27;;;13.87;;
73015;SDS011;61893;50.074;14.440;2023-03-20T07:12:14;28.47;;;12.03;;
73015;SDS011;61893;50.074;14.440;2023-03-20T07:14:41;17.93;;;11.57;;
73015;SDS011;61893;50.074;14.440;2023-03-20T07:17:08;23.37;;;12.20;;
73015;SDS011;61893;50.074;14.440;2023-03-20T07:22:46;22.67;;;12.37;;
73015;SDS011;61893;50.074;14.440;2023-03-20T07:25:22;23.07;;;13.27;;
73015;SDS011;61893;50.074;14.440;2023-03-20T07:30:56;25.97;;;13.40;;
73015;SDS011;61893;50.074;14.440;2023-03-20T07:33:39;26.57;;;13.77;;
73015;SDS011;61893;50.074;14.440;2023-03-20T07:36:38;26.80;;;13.93;;
73015;SDS011;61893;50.074;14.440;2023-03-20T07:42:00;24.63;;;14.23;;
73015;SDS011;61893;50.074;14.440;2023-03-20T07:45:09;26.63;;;13.73;;
73015;SDS011;61893;50.074;14.440;2023-03-20T07:47:55;23.88;;;13.30;;
73015;SDS011;61893;50.074;14.440;2023-03-20T07:54:10;21.43;;;13.30;;
73015;SDS011;61893;50.074;14.440;2023-03-20T07:56:49;22.83;;;12.93;;
73015;SDS011;61893;50.074;14.440;2023-03-20T08:21:23;22.03;;;12.10;;
73015;SDS011;61893;50.074;14.440;2023-03-20T08:24:11;19.00;;;10.95;;
73015;SDS011;61893;50.074;14.440;2023-03-20T08:35:30;17.55;;;10.80;;
73015;SDS011;61893;50.074;14.440;2023-03-20T08:44:22;32.55;;;18.65;;
73015;SDS011;61893;50.074;14.440;2023-03-20T08:47:01;27.17;;;16.52;;
73015;SDS011;61893;50.074;14.440;2023-03-20T08:49:41;33.97;;;18.42;;
73015;SDS011;61893;50.074;14.440;2023-03-20T08:52:23;25.23;;;15.82;;
73015;SDS011;61893;50.074;14.440;2023-03-20T09:03:18;13.70;;;8.73;;
73015;SDS011;61893;50.074;14.440;2023-03-20T09:14:34;14.55;;;8.85;;
73015;SDS011;61893;50.074;14.440;2023-03-20T09:21:22;13.82;;;8.38;;
73015;SDS011;61893;50.074;14.440;2023-03-20T09:30:04;15.55;;;8.35;;
73015;SDS011;61893;50.074;14.440;2023-03-20T09:33:11;12.90;;;7.47;;
73015;SDS011;61893;50.074;14.440;2023-03-20T09:36:03;10.82;;;7.55;;
73015;SDS011;61893;50.074;14.440;2023-03-20T09:44:22;13.40;;;7.65;;
73015;SDS011;61893;50.074;14.440;2023-03-20T09:47:37;13.13;;;7.45;;
73015;SDS011;61893;50.074;14.440;2023-03-20T10:09:25;6.72;;;4.80;;
73015;SDS011;61893;50.074;14.440;2023-03-20T10:52:03;10.75;;;3.30;;
73015;SDS011;61893;50.074;14.440;2023-03-20T13:23:32;3.13;;;1.65;;
73015;SDS011;61893;50.074;14.440;2023-03-20T15:41:30;3.15;;;1.27;;
73015;SDS011;61893;50.074;14.440;2023-03-20T15:56:45;8.45;;;1.30;;
73015;SDS011;61893;50.074;14.440;2023-03-20T15:59:55;2.72;;;1.10;;
73015;SDS011;61893;50.074;14.440;2023-03-20T16:17:01;3.72;;;1.00;;
73015;SDS011;61893;50.074;14.440;2023-03-20T16:26:35;4.28;;;1.60;;
73015;SDS011;61893;50.074;14.440;2023-03-20T17:43:46;3.30;;;1.45;;
73015;SDS011;61893;50.074;14.440;2023-03-20T17:50:55;4.45;;;1.88;;
73015;SDS011;61893;50.074;14.440;2023-03-20T17:54:01;4.68;;;1.98;;
73015;SDS011;61893;50.074;14.440;2023-03-20T18:00:20;5.75;;;2.60;;
73015;SDS011;61893;50.074;14.440;2023-03-20T18:03:18;3.13;;;2.03;;
73015;SDS011;61893;50.074;14.440;2023-03-20T18:06:05;3.95;;;2.10;;
73015;SDS011;61893;50.074;14.440;2023-03-20T18:09:16;5.68;;;2.10;;
73015;SDS011;61893;50.074;14.440;2023-03-20T18:15:35;4.93;;;2.20;;
73015;SDS011;61893;50.074;14.440;2023-03-20T18:18:12;6.93;;;1.90;;
73015;SDS011;61893;50.074;14.440;2023-03-20T18:21:07;5.07;;;2.88;;
73015;SDS011;61893;50.074;14.440;2023-03-20T18:37:23;5.00;;;2.55;;
73015;SDS011;61893;50.074;14.440;2023-03-20T18:40:40;5.68;;;2.75;;
73015;SDS011;61893;50.074;14.440;2023-03-20T18:43:57;3.53;;;2.03;;
73015;SDS011;61893;50.074;14.440;2023-03-20T18:46:37;3.17;;;2.20;;
73015;SDS011;61893;50.074;14.440;2023-03-20T18:52:31;4.72;;;2.80;;
73015;SDS011;61893;50.074;14.440;2023-03-20T18:55:01;5.07;;;2.72;;
73015;SDS011;61893;50.074;14.440;2023-03-20T18:57:30;5.28;;;2.70;;
73015;SDS011;61893;50.074;14.440;2023-03-20T19:00:41;5.95;;;2.50;;
73015;SDS011;61893;50.074;14.440;2023-03-20T19:03:28;5.75;;;2.80;;
73015;SDS011;61893;50.074;14.440;2023-03-20T19:06:00;4.30;;;2.40;;
73015;SDS011;61893;50.074;14.440;2023-03-20T19:08:49;4.22;;;2.97;;
73015;SDS011;61893;50.074;14.440;2023-03-20T19:11:41;4.65;;;3.00;;
73015;SDS011;61893;50.074;14.440;2023-03-20T19:14:15;9.50;;;2.83;;
73015;SDS011;61893;50.074;14.440;2023-03-20T19:17:09;6.15;;;3.10;;
73015;SDS011;61893;50.074;14.440;2023-03-20T19:20:00;6.22;;;3.33;;
73015;SDS011;61893;50.074;14.440;2023-03-20T19:33:43;9.73;;;4.78;;
73015;SDS011;61893;50.074;14.440;2023-03-20T19:36:27;10.60;;;5.67;;
73015;SDS011;61893;50.074;14.440;2023-03-20T19:39:38;10.27;;;5.25;;
73015;SDS011;61893;50.074;14.440;2023-03-20T19:42:19;10.85;;;5.55;;
73015;SDS011;61893;50.074;14.440;2023-03-20T19:45:17;9.32;;;5.40;;
73015;SDS011;61893;50.074;14.440;2023-03-20T19:47:54;10.50;;;5.20;;
73015;SDS011;61893;50.074;14.440;2023-03-20T19:50:39;8.20;;;4.57;;
73015;SDS011;61893;50.074;14.440;2023-03-20T19:53:10;9.45;;;5.32;;
73015;SDS011;61893;50.074;14.440;2023-03-20T19:55:58;7.03;;;4.53;;
73015;SDS011;61893;50.074;14.440;2023-03-20T19:58:48;6.95;;;4.05;;
73015;SDS011;61893;50.074;14.440;2023-03-20T20:01:18;13.35;;;3.90;;
73015;SDS011;61893;50.074;14.440;2023-03-20T20:03:49;14.90;;;4.57;;
73015;SDS011;61893;50.074;14.440;2023-03-20T20:06:18;19.60;;;5.57;;
73015;SDS011;61893;50.074;14.440;2023-03-20T20:08:46;16.00;;;4.45;;
73015;SDS011;61893;50.074;14.440;2023-03-20T20:11:28;5.80;;;3.73;;
73015;SDS011;61893;50.074;14.440;2023-03-20T20:32:42;4.88;;;3.55;;
